createdAt,value
2023-01-19T00:01:58.961Z,0.11
2023-01-19T00:05:02.021Z,0.21
2023-01-19T00:08:14.871Z,0.15
2023-01-19T00:11:18.180Z,0.33
2023-01-19T00:14:20.428Z,0.36
2023-01-19T00:17:22.858Z,0.40
2023-01-19T00:20:25.232Z,0.32
2023-01-19T00:23:27.491Z,0.38
2023-01-19T00:26:29.906Z,0.44
2023-01-19T00:29:33.744Z,0.30
2023-01-19T00:32:36.032Z,0.42
2023-01-19T00:35:38.352Z,0.36
2023-01-19T00:38:40.666Z,0.27
2023-01-19T00:42:09.218Z,0.37
2023-01-19T00:45:22.921Z,0.48
2023-01-19T00:48:25.276Z,0.43
2023-01-19T00:51:27.646Z,0.43
2023-01-19T00:54:29.900Z,0.29
2023-01-19T00:57:32.218Z,0.45
2023-01-19T01:00:34.480Z,0.52
2023-01-19T01:03:36.911Z,0.43
2023-01-19T01:06:39.194Z,0.54
2023-01-19T01:09:41.521Z,0.45
2023-01-19T01:12:57.667Z,0.30
2023-01-19T01:16:08.083Z,0.45
2023-01-19T01:19:10.280Z,0.36
2023-01-19T01:22:12.648Z,0.37
2023-01-19T01:25:16.507Z,0.28
2023-01-19T01:28:18.868Z,0.39
2023-01-19T01:31:21.226Z,0.51
2023-01-19T01:34:23.545Z,0.48
2023-01-19T01:37:25.915Z,0.39
2023-01-19T01:40:28.748Z,0.51
2023-01-19T01:43:48.834Z,0.57
2023-01-19T01:46:51.182Z,0.70
2023-01-19T01:49:58.400Z,0.68
2023-01-19T01:53:08.302Z,0.63
2023-01-19T01:56:14.710Z,0.72
2023-01-19T01:59:27.412Z,0.67
2023-01-19T02:02:49.515Z,0.47
2023-01-19T02:05:52.864Z,0.47
2023-01-19T02:09:24.545Z,0.72
2023-01-19T02:12:46.127Z,0.76
2023-01-19T02:15:57.900Z,0.61
2023-01-19T02:19:01.235Z,0.71
2023-01-19T02:22:12.103Z,0.71
2023-01-19T02:25:14.830Z,0.87
2023-01-19T02:28:18.038Z,0.78
2023-01-19T02:31:20.470Z,0.67
2023-01-19T02:34:23.349Z,0.65
2023-01-19T02:37:26.454Z,0.66
2023-01-19T02:40:29.147Z,0.75
2023-01-19T02:43:32.118Z,0.82
2023-01-19T02:46:34.857Z,0.95
2023-01-19T02:49:37.688Z,0.94
2023-01-19T02:52:39.962Z,1.05
2023-01-19T02:55:47.030Z,0.92
2023-01-19T02:59:18.475Z,1.06
2023-01-19T03:02:29.728Z,1.07
2023-01-19T03:05:41.143Z,0.83
2023-01-19T03:08:50.140Z,0.91
2023-01-19T03:12:10.614Z,0.73
2023-01-19T03:15:21.119Z,0.82
2023-01-19T03:18:26.333Z,0.86
2023-01-19T03:21:29.480Z,0.81
2023-01-19T03:24:36.973Z,0.94
2023-01-19T03:27:41.323Z,0.89
2023-01-19T03:30:47.202Z,0.87
2023-01-19T03:33:52.827Z,0.79
2023-01-19T03:36:58.605Z,0.77
2023-01-19T03:40:01.144Z,0.73
2023-01-19T03:43:04.388Z,0.70
2023-01-19T03:46:07.430Z,0.63
2023-01-19T03:49:10.149Z,0.86
2023-01-19T03:52:13.022Z,0.79
2023-01-19T03:55:15.294Z,0.72
2023-01-19T03:58:18.099Z,0.71
2023-01-19T04:01:23.104Z,0.64
2023-01-19T04:04:25.721Z,0.57
2023-01-19T04:07:28.637Z,0.65
2023-01-19T04:10:30.954Z,0.57
2023-01-19T04:13:33.252Z,0.50
2023-01-19T04:16:35.880Z,0.43
2023-01-19T04:19:38.196Z,0.43
2023-01-19T04:22:40.608Z,0.32
2023-01-19T04:25:42.926Z,0.28
2023-01-19T04:28:45.345Z,0.32
2023-01-19T04:31:47.618Z,0.29
2023-01-19T04:34:49.883Z,0.20
2023-01-19T04:37:52.303Z,0.07
2023-01-19T04:40:55.244Z,-0.02
2023-01-19T04:43:57.520Z,-0.01
2023-01-19T04:47:00.008Z,0.02
2023-01-19T04:50:02.472Z,-0.17
2023-01-19T04:53:04.803Z,-0.02
2023-01-19T04:56:07.285Z,-0.02
2023-01-19T04:59:09.620Z,0.09
2023-01-19T05:02:11.944Z,0.11
2023-01-19T05:05:14.735Z,0.18
2023-01-19T05:08:17.175Z,0.03
2023-01-19T05:11:19.476Z,0.19
2023-01-19T05:14:21.817Z,0.30
2023-01-19T05:17:24.186Z,0.32
2023-01-19T05:20:26.494Z,0.32
2023-01-19T05:23:31.105Z,0.39
2023-01-19T05:26:33.536Z,0.36
2023-01-19T05:29:35.881Z,0.22
2023-01-19T05:32:38.246Z,0.14
2023-01-19T05:35:40.549Z,0.14
2023-01-19T05:38:42.796Z,0.06
2023-01-19T05:41:45.688Z,0.15
2023-01-19T05:44:48.378Z,0.14
2023-01-19T05:47:51.042Z,0.14
2023-01-19T05:50:58.247Z,0.18
2023-01-19T05:54:01.134Z,0.25
2023-01-19T05:57:04.642Z,0.34
2023-01-19T06:00:07.624Z,0.40
2023-01-19T06:03:11.469Z,0.36
2023-01-19T06:06:15.128Z,0.37
2023-01-19T06:09:17.917Z,0.36
2023-01-19T06:12:20.410Z,0.42
2023-01-19T06:15:22.994Z,0.62
2023-01-19T06:18:25.438Z,0.77
2023-01-19T06:21:27.834Z,0.96
2023-01-19T06:24:30.349Z,0.98
2023-01-19T06:27:32.684Z,0.97
2023-01-19T06:30:35.038Z,0.92
2023-01-19T06:33:37.396Z,0.77
2023-01-19T06:36:39.793Z,0.91
2023-01-19T06:39:42.425Z,0.92
2023-01-19T06:42:44.693Z,0.70
2023-01-19T06:45:47.593Z,0.68
2023-01-19T06:48:49.987Z,0.61
2023-01-19T06:51:52.400Z,0.78
2023-01-19T06:54:54.905Z,0.69
2023-01-19T06:57:59.842Z,0.81
2023-01-19T07:01:03.865Z,0.92
2023-01-19T07:04:06.138Z,0.99
2023-01-19T07:07:08.473Z,0.95
2023-01-19T07:10:12.039Z,1.10
2023-01-19T07:13:14.383Z,1.16
2023-01-19T07:16:16.717Z,1.10
2023-01-19T07:19:19.155Z,1.29
2023-01-19T07:22:21.561Z,1.30
2023-01-19T07:25:23.961Z,1.29
2023-01-19T07:28:26.370Z,1.05
2023-01-19T07:31:28.774Z,1.18
2023-01-19T07:34:31.350Z,1.22
2023-01-19T07:37:33.714Z,1.11
2023-01-19T07:40:36.067Z,1.20
2023-01-19T07:43:38.686Z,1.21
2023-01-19T07:46:41.347Z,1.23
2023-01-19T07:49:43.620Z,1.36
2023-01-19T07:52:46.173Z,1.46
2023-01-19T07:55:54.980Z,1.50
2023-01-19T07:58:57.860Z,1.48
2023-01-19T08:02:00.557Z,1.46
2023-01-19T08:05:03.113Z,1.39
2023-01-19T08:08:05.714Z,1.30
2023-01-19T08:11:08.596Z,1.16
2023-01-19T08:14:11.174Z,1.17
2023-01-19T08:17:14.213Z,1.07
2023-01-19T08:20:16.488Z,1.06
2023-01-19T08:23:19.793Z,1.14
2023-01-19T08:26:29.922Z,1.00
2023-01-19T08:29:33.764Z,1.21
2023-01-19T08:32:36.088Z,1.53
2023-01-19T08:35:41.380Z,1.64
2023-01-19T08:38:45.704Z,1.82
2023-01-19T08:41:47.988Z,1.89
2023-01-19T08:44:58.186Z,1.85
2023-01-19T08:48:01.272Z,1.85
2023-01-19T08:51:03.674Z,1.83
2023-01-19T08:54:06.072Z,1.82
2023-01-19T08:57:08.357Z,1.87
2023-01-19T09:00:11.218Z,1.99
2023-01-19T09:03:14.036Z,1.92
2023-01-19T09:06:18.602Z,1.92
2023-01-19T09:09:20.899Z,2.01
2023-01-19T09:12:23.213Z,2.03
2023-01-19T09:15:25.578Z,1.84
2023-01-19T09:18:27.920Z,1.92
2023-01-19T09:21:30.268Z,2.00
2023-01-19T09:24:32.596Z,2.05
2023-01-19T09:27:35.074Z,2.02
2023-01-19T09:30:40.712Z,2.15
2023-01-19T09:33:43.093Z,2.30
2023-01-19T09:36:47.483Z,2.17
2023-01-19T09:39:49.814Z,2.27
2023-01-19T09:43:05.124Z,2.31
2023-01-19T09:46:16.234Z,2.37
2023-01-19T09:49:33.443Z,2.36
2023-01-19T09:52:37.724Z,2.24
2023-01-19T09:55:42.725Z,2.40
2023-01-19T09:58:45.113Z,2.34
2023-01-19T10:02:15.715Z,2.56
2023-01-19T10:05:22.210Z,2.85
2023-01-19T10:08:36.456Z,2.66
2023-01-19T10:11:52.660Z,2.24
2023-01-19T10:15:04.541Z,2.32
2023-01-19T10:18:06.731Z,2.62
2023-01-19T10:21:11.943Z,2.64
2023-01-19T10:24:23.176Z,2.86
2023-01-19T10:27:29.545Z,2.80
2023-01-19T10:30:32.090Z,2.75
2023-01-19T10:33:35.397Z,2.95
2023-01-19T10:36:40.079Z,2.95
2023-01-19T10:39:42.970Z,3.03
2023-01-19T10:42:45.435Z,3.12
2023-01-19T10:45:50.775Z,2.63
2023-01-19T10:48:54.528Z,2.93
2023-01-19T10:51:58.956Z,2.85
2023-01-19T10:55:03.444Z,2.85
2023-01-19T10:58:08.046Z,3.06
2023-01-19T11:01:19.978Z,3.09
2023-01-19T11:04:31.774Z,3.19
2023-01-19T11:07:35.195Z,3.02
2023-01-19T11:10:38.651Z,2.97
2023-01-19T11:13:41.874Z,2.86
2023-01-19T11:16:49.845Z,2.91
2023-01-19T11:19:57.939Z,3.13
2023-01-19T11:23:16.067Z,3.23
2023-01-19T11:26:27.937Z,3.11
2023-01-19T11:29:30.803Z,3.03
2023-01-19T11:32:36.991Z,3.01
2023-01-19T11:35:41.297Z,2.92
2023-01-19T11:38:46.186Z,2.92
2023-01-19T11:41:51.707Z,2.82
2023-01-19T11:45:03.734Z,2.98
2023-01-19T11:48:06.772Z,2.81
2023-01-19T11:51:14.938Z,2.92
2023-01-19T11:54:23.911Z,2.93
2023-01-19T11:57:26.572Z,2.71
2023-01-19T12:00:43.797Z,2.68
2023-01-19T12:03:54.693Z,2.80
2023-01-19T12:06:58.451Z,3.00
2023-01-19T12:10:13.691Z,3.00
2023-01-19T12:13:35.012Z,3.08
2023-01-19T12:16:39.439Z,3.00
2023-01-19T12:19:46.126Z,2.67
2023-01-19T12:23:03.163Z,2.82
2023-01-19T12:26:22.009Z,2.61
2023-01-19T12:29:28.336Z,2.64
2023-01-19T12:32:35.596Z,2.50
2023-01-19T12:35:57.230Z,2.75
2023-01-19T12:39:18.711Z,2.73
2023-01-19T12:42:21.529Z,2.81
2023-01-19T12:45:25.849Z,2.85
2023-01-19T12:48:28.439Z,3.10
2023-01-19T12:51:30.746Z,2.84
2023-01-19T12:54:33.502Z,2.84
2023-01-19T12:57:39.770Z,3.11
2023-01-19T13:00:43.947Z,2.85
2023-01-19T13:04:09.748Z,2.79
2023-01-19T13:07:17.989Z,3.05
2023-01-19T13:10:54.376Z,2.90
2023-01-19T13:13:59.511Z,2.58
2023-01-19T13:17:02.986Z,2.92
2023-01-19T13:20:19.515Z,2.86
2023-01-19T13:23:21.916Z,2.95
2023-01-19T13:26:35.427Z,2.84
2023-01-19T13:29:41.927Z,2.60
2023-01-19T13:32:44.281Z,2.51
2023-01-19T13:35:55.611Z,2.52
2023-01-19T13:39:28.544Z,2.43
2023-01-19T13:42:42.020Z,2.33
2023-01-19T13:45:50.716Z,2.21
2023-01-19T13:48:57.177Z,2.36
2023-01-19T13:52:14.345Z,2.50
2023-01-19T13:55:17.181Z,2.55
2023-01-19T13:58:24.242Z,2.44
2023-01-19T14:01:29.278Z,2.38
2023-01-19T14:04:33.946Z,2.45
2023-01-19T14:07:36.333Z,2.37
2023-01-19T14:10:47.383Z,2.44
2023-01-19T14:13:49.700Z,2.31
2023-01-19T14:16:52.039Z,2.50
2023-01-19T14:19:56.935Z,2.30
2023-01-19T14:22:59.185Z,2.18
2023-01-19T14:26:01.624Z,2.23
2023-01-19T14:29:22.241Z,2.48
2023-01-19T14:32:25.508Z,2.57
2023-01-19T14:35:30.142Z,2.53
2023-01-19T14:38:32.535Z,2.50
2023-01-19T14:41:41.445Z,2.55
2023-01-19T14:44:48.240Z,2.64
2023-01-19T14:48:18.412Z,2.77
2023-01-19T14:51:23.283Z,2.78
2023-01-19T14:54:31.570Z,2.66
2023-01-19T14:57:36.696Z,2.68
2023-01-19T15:00:39.618Z,2.49
2023-01-19T15:03:45.376Z,2.47
2023-01-19T15:06:48.567Z,2.27
2023-01-19T15:09:51.205Z,2.17
2023-01-19T15:12:54.829Z,2.17
2023-01-19T15:15:58.517Z,2.12
2023-01-19T15:19:01.051Z,2.22
2023-01-19T15:22:06.163Z,2.27
2023-01-19T15:25:09.068Z,2.34
2023-01-19T15:28:18.250Z,2.25
2023-01-19T15:31:22.585Z,2.17
2023-01-19T15:34:24.971Z,2.14
2023-01-19T15:37:27.408Z,2.16
2023-01-19T15:40:29.643Z,2.23
2023-01-19T15:43:31.962Z,2.25
2023-01-19T15:46:34.859Z,2.24
2023-01-19T15:49:37.182Z,2.37
2023-01-19T15:52:39.468Z,2.42
2023-01-19T15:55:43.102Z,2.60
2023-01-19T15:58:46.706Z,2.69
2023-01-19T16:01:50.895Z,2.40
2023-01-19T16:04:53.448Z,2.63
2023-01-19T16:07:56.137Z,2.68
2023-01-19T16:10:58.539Z,2.58
2023-01-19T16:14:01.368Z,2.62
2023-01-19T16:17:03.819Z,2.43
2023-01-19T16:20:07.362Z,2.35
2023-01-19T16:23:14.747Z,2.28
2023-01-19T16:26:33.229Z,2.35
2023-01-19T16:29:35.545Z,2.28
2023-01-19T16:32:38.544Z,2.23
2023-01-19T16:35:40.885Z,2.20
2023-01-19T16:38:43.247Z,2.26
2023-01-19T16:41:46.316Z,2.20
2023-01-19T16:44:48.659Z,2.28
2023-01-19T16:47:52.265Z,2.22
2023-01-19T16:51:01.342Z,2.12
2023-01-19T16:54:03.869Z,1.92
2023-01-19T16:57:06.360Z,2.05
2023-01-19T17:00:10.651Z,1.94
2023-01-19T17:03:13.117Z,1.90
2023-01-19T17:06:20.487Z,2.07
2023-01-19T17:09:22.897Z,2.07
2023-01-19T17:12:25.257Z,2.22
2023-01-19T17:15:27.524Z,2.21
2023-01-19T17:18:32.903Z,2.21
2023-01-19T17:21:35.877Z,2.11
2023-01-19T17:24:42.380Z,2.15
2023-01-19T17:27:44.791Z,2.10
2023-01-19T17:30:47.293Z,2.12
2023-01-19T17:33:50.893Z,2.04
2023-01-19T17:36:53.220Z,2.21
2023-01-19T17:39:56.875Z,2.21
2023-01-19T17:42:59.198Z,2.47
2023-01-19T17:46:01.601Z,2.50
2023-01-19T17:49:06.441Z,2.61
2023-01-19T17:52:12.850Z,2.59
2023-01-19T17:55:20.205Z,2.58
2023-01-19T17:58:23.727Z,2.67
2023-01-19T18:01:28.806Z,2.60
2023-01-19T18:04:32.243Z,2.57
2023-01-19T18:07:34.679Z,2.55
2023-01-19T18:10:37.829Z,2.43
2023-01-19T18:13:42.125Z,2.43
2023-01-19T18:16:44.435Z,2.35
2023-01-19T18:19:46.843Z,2.31
2023-01-19T18:22:49.216Z,2.31
2023-01-19T18:25:51.523Z,2.38
2023-01-19T18:28:56.756Z,2.43
2023-01-19T18:31:59.008Z,2.35
2023-01-19T18:35:05.366Z,2.30
2023-01-19T18:38:12.866Z,2.22
2023-01-19T18:41:17.394Z,2.24
2023-01-19T18:44:19.650Z,2.30
2023-01-19T18:47:21.998Z,2.25
2023-01-19T18:50:24.278Z,2.17
2023-01-19T18:53:26.645Z,2.28
2023-01-19T18:56:29.155Z,2.46
2023-01-19T18:59:31.496Z,2.39
2023-01-19T19:02:33.806Z,2.50
2023-01-19T19:05:36.343Z,2.48
2023-01-19T19:08:38.856Z,2.57
2023-01-19T19:11:41.218Z,2.62
2023-01-19T19:14:43.606Z,2.46
2023-01-19T19:17:45.946Z,2.55
2023-01-19T19:20:48.344Z,2.45
2023-01-19T19:23:58.283Z,2.24
2023-01-19T19:27:00.564Z,2.22
2023-01-19T19:30:04.202Z,2.08
2023-01-19T19:33:07.863Z,2.00
2023-01-19T19:36:11.913Z,2.07
2023-01-19T19:39:14.200Z,2.06
2023-01-19T19:42:16.695Z,2.17
2023-01-19T19:45:19.574Z,2.11
2023-01-19T19:48:21.931Z,2.08
2023-01-19T19:51:27.099Z,2.01
2023-01-19T19:54:29.614Z,1.87
2023-01-19T19:57:31.871Z,1.91
2023-01-19T20:00:34.223Z,1.89
2023-01-19T20:03:36.731Z,1.64
2023-01-19T20:06:45.002Z,1.82
2023-01-19T20:09:47.696Z,1.51
2023-01-19T20:12:51.783Z,1.47
2023-01-19T20:15:54.324Z,1.36
2023-01-19T20:18:56.708Z,1.64
2023-01-19T20:21:59.057Z,1.47
2023-01-19T20:25:01.359Z,1.54
2023-01-19T20:28:03.734Z,1.65
2023-01-19T20:31:22.615Z,1.78
2023-01-19T20:34:30.451Z,1.51
2023-01-19T20:37:49.936Z,1.35
2023-01-19T20:40:54.168Z,1.17
2023-01-19T20:43:56.567Z,1.18
2023-01-19T20:46:59.037Z,1.05
2023-01-19T20:50:01.474Z,1.05
2023-01-19T20:53:04.080Z,1.14
2023-01-19T20:56:12.731Z,1.14
2023-01-19T20:59:15.247Z,1.19
2023-01-19T21:02:17.788Z,1.03
2023-01-19T21:05:20.148Z,1.08
2023-01-19T21:08:22.711Z,0.90
2023-01-19T21:11:25.690Z,0.84
2023-01-19T21:14:27.998Z,1.08
2023-01-19T21:17:30.355Z,1.22
2023-01-19T21:20:33.113Z,1.04
2023-01-19T21:23:35.499Z,0.96
2023-01-19T21:26:38.034Z,0.70
2023-01-19T21:29:41.019Z,0.77
2023-01-19T21:32:43.291Z,1.12
2023-01-19T21:35:56.864Z,0.94
2023-01-19T21:39:00.980Z,1.13
2023-01-19T21:42:03.610Z,1.16
2023-01-19T21:45:06.978Z,0.87
2023-01-19T21:48:09.764Z,1.13
2023-01-19T21:51:13.398Z,1.02
2023-01-19T21:54:15.717Z,1.06
2023-01-19T21:57:19.764Z,0.97
2023-01-19T22:00:22.159Z,1.02
2023-01-19T22:03:25.490Z,0.63
2023-01-19T22:06:28.563Z,0.38
2023-01-19T22:09:30.898Z,0.55
2023-01-19T22:12:33.190Z,0.54
2023-01-19T22:15:35.512Z,0.40
2023-01-19T22:18:39.241Z,0.29
2023-01-19T22:21:41.595Z,0.01
2023-01-19T22:24:46.730Z,0.04
2023-01-19T22:27:49.092Z,0.03
2023-01-19T22:30:51.621Z,0.03
2023-01-19T22:33:54.589Z,0.01
2023-01-19T22:36:56.965Z,0.08
2023-01-19T22:39:59.201Z,0.11
2023-01-19T22:43:01.514Z,0.10
2023-01-19T22:46:04.249Z,0.10
2023-01-19T22:49:07.814Z,0.26
2023-01-19T22:52:10.083Z,0.41
2023-01-19T22:55:12.726Z,0.34
2023-01-19T22:58:15.394Z,0.23
2023-01-19T23:01:21.089Z,0.25
2023-01-19T23:04:23.744Z,0.26
2023-01-19T23:07:26.029Z,0.35
2023-01-19T23:10:28.480Z,0.39
2023-01-19T23:13:30.791Z,0.34
2023-01-19T23:16:33.180Z,0.31
2023-01-19T23:19:35.632Z,0.32
2023-01-19T23:22:38.083Z,0.05
2023-01-19T23:25:40.431Z,0.29
2023-01-19T23:28:43.341Z,-0.03
2023-01-19T23:31:47.439Z,0.16
2023-01-19T23:34:49.746Z,0.21
2023-01-19T23:37:52.115Z,0.19
2023-01-19T23:40:57.990Z,0.29
2023-01-19T23:44:00.269Z,0.31
2023-01-19T23:47:02.618Z,0.32
2023-01-19T23:50:05.844Z,0.19
2023-01-19T23:53:08.266Z,0.23
2023-01-19T23:56:18.333Z,0.14
2023-01-19T23:59:20.627Z,0.14
